sensor_id;sensor_type;location;lat;lon;timestamp;P1;durP1;ratioP1;P2;durP2;ratioP2
48203;SDS011;33994;50.998;5.864;2023-05-07T00:01:55;13.00;;;5.22;;
48203;SDS011;33994;50.998;5.864;2023-05-07T00:04:59;9.75;;;4.25;;
48203;SDS011;33994;50.998;5.864;2023-05-07T00:08:02;8.68;;;5.00;;
48203;SDS011;33994;50.998;5.864;2023-05-07T00:11:06;7.68;;;5.15;;
48203;SDS011;33994;50.998;5.864;2023-05-07T00:14:10;8.90;;;5.30;;
48203;SDS011;33994;50.998;5.864;2023-05-07T00:17:13;8.82;;;5.35;;
48203;SDS011;33994;50.998;5.864;2023-05-07T00:20:17;8.05;;;4.78;;
48203;SDS011;33994;50.998;5.864;2023-05-07T00:23:20;10.38;;;5.22;;
48203;SDS011;33994;50.998;5.864;2023-05-07T00:26:23;10.35;;;6.50;;
48203;SDS011;33994;50.998;5.864;2023-05-07T00:29:28;10.43;;;5.00;;
48203;SDS011;33994;50.998;5.864;2023-05-07T00:32:31;11.93;;;5.38;;
48203;SDS011;33994;50.998;5.864;2023-05-07T00:35:34;11.43;;;6.15;;
48203;SDS011;33994;50.998;5.864;2023-05-07T00:38:37;8.85;;;5.20;;
48203;SDS011;33994;50.998;5.864;2023-05-07T00:41:40;8.82;;;5.13;;
48203;SDS011;33994;50.998;5.864;2023-05-07T00:44:45;11.02;;;5.38;;
48203;SDS011;33994;50.998;5.864;2023-05-07T00:47:48;9.48;;;4.85;;
48203;SDS011;33994;50.998;5.864;2023-05-07T00:50:51;9.18;;;4.53;;
48203;SDS011;33994;50.998;5.864;2023-05-07T00:53:55;10.20;;;5.63;;
48203;SDS011;33994;50.998;5.864;2023-05-07T00:56:58;8.20;;;5.18;;
48203;SDS011;33994;50.998;5.864;2023-05-07T01:00:03;7.78;;;5.25;;
48203;SDS011;33994;50.998;5.864;2023-05-07T01:03:07;9.40;;;5.63;;
48203;SDS011;33994;50.998;5.864;2023-05-07T01:06:10;8.85;;;5.30;;
48203;SDS011;33994;50.998;5.864;2023-05-07T01:09:15;12.30;;;5.72;;
48203;SDS011;33994;50.998;5.864;2023-05-07T01:12:18;6.97;;;5.43;;
48203;SDS011;33994;50.998;5.864;2023-05-07T01:15:24;8.23;;;5.10;;
48203;SDS011;33994;50.998;5.864;2023-05-07T01:18:27;8.02;;;5.53;;
48203;SDS011;33994;50.998;5.864;2023-05-07T01:21:32;9.02;;;5.20;;
48203;SDS011;33994;50.998;5.864;2023-05-07T01:24:37;12.13;;;6.35;;
48203;SDS011;33994;50.998;5.864;2023-05-07T01:27:41;10.68;;;6.07;;
48203;SDS011;33994;50.998;5.864;2023-05-07T01:33:06;8.07;;;5.97;;
48203;SDS011;33994;50.998;5.864;2023-05-07T01:36:11;8.95;;;6.13;;
48203;SDS011;33994;50.998;5.864;2023-05-07T01:39:16;9.30;;;5.70;;
48203;SDS011;33994;50.998;5.864;2023-05-07T01:42:19;12.43;;;6.50;;
48203;SDS011;33994;50.998;5.864;2023-05-07T01:45:22;8.98;;;5.57;;
48203;SDS011;33994;50.998;5.864;2023-05-07T01:48:27;10.70;;;6.05;;
48203;SDS011;33994;50.998;5.864;2023-05-07T01:51:31;8.88;;;5.70;;
48203;SDS011;33994;50.998;5.864;2023-05-07T01:54:35;8.70;;;5.82;;
48203;SDS011;33994;50.998;5.864;2023-05-07T01:57:38;13.15;;;6.38;;
48203;SDS011;33994;50.998;5.864;2023-05-07T02:00:42;9.75;;;6.18;;
48203;SDS011;33994;50.998;5.864;2023-05-07T02:03:46;7.45;;;5.47;;
48203;SDS011;33994;50.998;5.864;2023-05-07T02:06:49;12.13;;;6.40;;
48203;SDS011;33994;50.998;5.864;2023-05-07T02:09:52;10.15;;;5.78;;
48203;SDS011;33994;50.998;5.864;2023-05-07T02:12:55;7.13;;;5.30;;
48203;SDS011;33994;50.998;5.864;2023-05-07T02:15:59;14.50;;;6.18;;
48203;SDS011;33994;50.998;5.864;2023-05-07T02:19:03;9.40;;;5.78;;
48203;SDS011;33994;50.998;5.864;2023-05-07T02:22:07;12.65;;;6.60;;
48203;SDS011;33994;50.998;5.864;2023-05-07T02:25:10;9.88;;;7.03;;
48203;SDS011;33994;50.998;5.864;2023-05-07T02:28:13;12.20;;;6.50;;
48203;SDS011;33994;50.998;5.864;2023-05-07T02:31:16;11.55;;;7.05;;
48203;SDS011;33994;50.998;5.864;2023-05-07T02:34:21;9.10;;;6.25;;
48203;SDS011;33994;50.998;5.864;2023-05-07T02:37:24;9.30;;;6.60;;
48203;SDS011;33994;50.998;5.864;2023-05-07T02:40:27;10.30;;;6.68;;
48203;SDS011;33994;50.998;5.864;2023-05-07T02:43:30;9.88;;;6.38;;
48203;SDS011;33994;50.998;5.864;2023-05-07T02:46:33;8.95;;;6.05;;
48203;SDS011;33994;50.998;5.864;2023-05-07T02:49:38;14.85;;;7.03;;
48203;SDS011;33994;50.998;5.864;2023-05-07T02:52:41;9.90;;;5.53;;
48203;SDS011;33994;50.998;5.864;2023-05-07T02:55:44;11.95;;;6.15;;
48203;SDS011;33994;50.998;5.864;2023-05-07T02:58:47;9.40;;;5.47;;
48203;SDS011;33994;50.998;5.864;2023-05-07T03:01:50;9.90;;;5.40;;
48203;SDS011;33994;50.998;5.864;2023-05-07T03:04:55;8.45;;;5.75;;
48203;SDS011;33994;50.998;5.864;2023-05-07T03:07:58;8.10;;;5.65;;
48203;SDS011;33994;50.998;5.864;2023-05-07T03:11:01;10.88;;;6.07;;
48203;SDS011;33994;50.998;5.864;2023-05-07T03:14:04;7.95;;;5.63;;
48203;SDS011;33994;50.998;5.864;2023-05-07T03:17:07;16.35;;;6.25;;
48203;SDS011;33994;50.998;5.864;2023-05-07T03:20:12;12.23;;;6.07;;
48203;SDS011;33994;50.998;5.864;2023-05-07T03:23:15;8.15;;;5.47;;
48203;SDS011;33994;50.998;5.864;2023-05-07T03:26:18;6.93;;;5.30;;
48203;SDS011;33994;50.998;5.864;2023-05-07T03:29:21;7.20;;;5.45;;
48203;SDS011;33994;50.998;5.864;2023-05-07T03:32:25;7.28;;;4.90;;
48203;SDS011;33994;50.998;5.864;2023-05-07T03:35:29;8.52;;;5.45;;
48203;SDS011;33994;50.998;5.864;2023-05-07T03:38:32;8.15;;;5.85;;
48203;SDS011;33994;50.998;5.864;2023-05-07T03:41:36;9.25;;;5.90;;
48203;SDS011;33994;50.998;5.864;2023-05-07T03:44:39;7.22;;;5.88;;
48203;SDS011;33994;50.998;5.864;2023-05-07T03:47:42;9.15;;;5.65;;
48203;SDS011;33994;50.998;5.864;2023-05-07T03:50:46;10.00;;;5.68;;
48203;SDS011;33994;50.998;5.864;2023-05-07T03:53:49;8.63;;;5.55;;
48203;SDS011;33994;50.998;5.864;2023-05-07T03:56:53;8.38;;;5.40;;
48203;SDS011;33994;50.998;5.864;2023-05-07T03:59:56;7.50;;;5.40;;
48203;SDS011;33994;50.998;5.864;2023-05-07T04:02:59;12.27;;;6.30;;
48203;SDS011;33994;50.998;5.864;2023-05-07T04:06:03;7.53;;;5.80;;
48203;SDS011;33994;50.998;5.864;2023-05-07T04:09:07;11.10;;;6.72;;
48203;SDS011;33994;50.998;5.864;2023-05-07T04:12:10;8.10;;;5.57;;
48203;SDS011;33994;50.998;5.864;2023-05-07T04:15:13;9.15;;;6.63;;
48203;SDS011;33994;50.998;5.864;2023-05-07T04:18:16;8.93;;;5.93;;
48203;SDS011;33994;50.998;5.864;2023-05-07T04:21:21;9.10;;;6.82;;
48203;SDS011;33994;50.998;5.864;2023-05-07T04:24:24;9.25;;;6.10;;
48203;SDS011;33994;50.998;5.864;2023-05-07T04:27:27;8.45;;;5.45;;
48203;SDS011;33994;50.998;5.864;2023-05-07T04:30:30;9.73;;;6.22;;
48203;SDS011;33994;50.998;5.864;2023-05-07T04:33:33;9.23;;;6.10;;
48203;SDS011;33994;50.998;5.864;2023-05-07T04:36:38;10.80;;;5.80;;
48203;SDS011;33994;50.998;5.864;2023-05-07T04:39:41;12.13;;;5.85;;
48203;SDS011;33994;50.998;5.864;2023-05-07T04:42:45;10.55;;;6.30;;
48203;SDS011;33994;50.998;5.864;2023-05-07T04:45:49;11.40;;;5.93;;
48203;SDS011;33994;50.998;5.864;2023-05-07T04:48:52;7.68;;;5.78;;
48203;SDS011;33994;50.998;5.864;2023-05-07T04:51:57;7.45;;;5.70;;
48203;SDS011;33994;50.998;5.864;2023-05-07T04:55:00;9.25;;;6.72;;
48203;SDS011;33994;50.998;5.864;2023-05-07T04:58:03;9.85;;;5.97;;
48203;SDS011;33994;50.998;5.864;2023-05-07T05:01:06;9.85;;;5.97;;
48203;SDS011;33994;50.998;5.864;2023-05-07T05:04:10;9.88;;;6.10;;
48203;SDS011;33994;50.998;5.864;2023-05-07T05:07:14;8.20;;;5.90;;
48203;SDS011;33994;50.998;5.864;2023-05-07T05:10:17;7.47;;;5.63;;
48203;SDS011;33994;50.998;5.864;2023-05-07T05:13:20;12.23;;;6.20;;
48203;SDS011;33994;50.998;5.864;2023-05-07T05:16:23;8.55;;;5.75;;
48203;SDS011;33994;50.998;5.864;2023-05-07T05:19:26;6.55;;;5.15;;
48203;SDS011;33994;50.998;5.864;2023-05-07T05:22:31;7.15;;;5.43;;
48203;SDS011;33994;50.998;5.864;2023-05-07T05:25:34;8.52;;;5.40;;
48203;SDS011;33994;50.998;5.864;2023-05-07T05:28:37;7.82;;;5.28;;
48203;SDS011;33994;50.998;5.864;2023-05-07T05:31:41;12.02;;;5.72;;
48203;SDS011;33994;50.998;5.864;2023-05-07T05:34:44;7.03;;;5.57;;
48203;SDS011;33994;50.998;5.864;2023-05-07T05:37:48;8.60;;;5.15;;
48203;SDS011;33994;50.998;5.864;2023-05-07T05:40:52;12.90;;;5.95;;
48203;SDS011;33994;50.998;5.864;2023-05-07T05:43:55;8.18;;;4.85;;
48203;SDS011;33994;50.998;5.864;2023-05-07T05:46:58;8.18;;;5.28;;
48203;SDS011;33994;50.998;5.864;2023-05-07T05:50:01;7.03;;;5.05;;
48203;SDS011;33994;50.998;5.864;2023-05-07T05:53:06;9.90;;;5.07;;
48203;SDS011;33994;50.998;5.864;2023-05-07T05:56:09;7.85;;;4.95;;
48203;SDS011;33994;50.998;5.864;2023-05-07T05:59:12;8.27;;;5.15;;
48203;SDS011;33994;50.998;5.864;2023-05-07T06:02:15;6.07;;;4.88;;
48203;SDS011;33994;50.998;5.864;2023-05-07T06:05:18;5.75;;;4.40;;
48203;SDS011;33994;50.998;5.864;2023-05-07T06:08:23;9.07;;;4.82;;
48203;SDS011;33994;50.998;5.864;2023-05-07T06:11:26;9.05;;;5.18;;
48203;SDS011;33994;50.998;5.864;2023-05-07T06:14:29;7.75;;;4.97;;
48203;SDS011;33994;50.998;5.864;2023-05-07T06:17:32;8.88;;;4.70;;
48203;SDS011;33994;50.998;5.864;2023-05-07T06:20:36;7.70;;;5.47;;
48203;SDS011;33994;50.998;5.864;2023-05-07T06:23:41;8.20;;;4.93;;
48203;SDS011;33994;50.998;5.864;2023-05-07T06:26:44;7.63;;;4.75;;
48203;SDS011;33994;50.998;5.864;2023-05-07T06:29:47;8.60;;;4.68;;
48203;SDS011;33994;50.998;5.864;2023-05-07T06:32:51;9.25;;;4.88;;
48203;SDS011;33994;50.998;5.864;2023-05-07T06:35:54;10.07;;;4.35;;
48203;SDS011;33994;50.998;5.864;2023-05-07T06:38:58;9.90;;;4.15;;
48203;SDS011;33994;50.998;5.864;2023-05-07T06:42:01;8.30;;;5.10;;
48203;SDS011;33994;50.998;5.864;2023-05-07T06:45:05;7.40;;;4.25;;
48203;SDS011;33994;50.998;5.864;2023-05-07T06:48:08;10.50;;;5.10;;
48203;SDS011;33994;50.998;5.864;2023-05-07T06:51:11;6.90;;;4.47;;
48203;SDS011;33994;50.998;5.864;2023-05-07T06:54:16;6.78;;;4.57;;
48203;SDS011;33994;50.998;5.864;2023-05-07T06:57:19;11.15;;;4.05;;
48203;SDS011;33994;50.998;5.864;2023-05-07T07:00:22;7.50;;;4.00;;
48203;SDS011;33994;50.998;5.864;2023-05-07T07:03:25;12.10;;;4.40;;
48203;SDS011;33994;50.998;5.864;2023-05-07T07:06:29;6.25;;;3.67;;
48203;SDS011;33994;50.998;5.864;2023-05-07T07:09:33;6.60;;;4.20;;
48203;SDS011;33994;50.998;5.864;2023-05-07T07:12:36;8.02;;;4.22;;
48203;SDS011;33994;50.998;5.864;2023-05-07T07:15:40;7.32;;;3.88;;
48203;SDS011;33994;50.998;5.864;2023-05-07T07:18:43;8.32;;;4.05;;
48203;SDS011;33994;50.998;5.864;2023-05-07T07:21:46;7.70;;;3.83;;
48203;SDS011;33994;50.998;5.864;2023-05-07T07:24:50;6.75;;;3.50;;
48203;SDS011;33994;50.998;5.864;2023-05-07T07:27:53;7.15;;;3.03;;
48203;SDS011;33994;50.998;5.864;2023-05-07T07:30:57;8.18;;;4.00;;
48203;SDS011;33994;50.998;5.864;2023-05-07T07:34:00;9.45;;;4.13;;
48203;SDS011;33994;50.998;5.864;2023-05-07T07:37:03;5.95;;;3.65;;
48203;SDS011;33994;50.998;5.864;2023-05-07T07:40:08;5.20;;;3.47;;
48203;SDS011;33994;50.998;5.864;2023-05-07T07:43:13;6.05;;;3.45;;
48203;SDS011;33994;50.998;5.864;2023-05-07T07:46:16;5.15;;;2.70;;
48203;SDS011;33994;50.998;5.864;2023-05-07T07:49:19;5.55;;;3.47;;
48203;SDS011;33994;50.998;5.864;2023-05-07T07:52:22;6.00;;;3.10;;
48203;SDS011;33994;50.998;5.864;2023-05-07T07:55:27;5.82;;;2.70;;
48203;SDS011;33994;50.998;5.864;2023-05-07T07:58:30;4.45;;;2.42;;
48203;SDS011;33994;50.998;5.864;2023-05-07T08:01:34;6.43;;;3.00;;
48203;SDS011;33994;50.998;5.864;2023-05-07T08:04:37;4.35;;;2.17;;
48203;SDS011;33994;50.998;5.864;2023-05-07T08:07:40;2.95;;;2.33;;
48203;SDS011;33994;50.998;5.864;2023-05-07T08:10:45;6.50;;;2.47;;
48203;SDS011;33994;50.998;5.864;2023-05-07T08:13:48;4.05;;;2.40;;
48203;SDS011;33994;50.998;5.864;2023-05-07T08:16:51;6.22;;;2.67;;
48203;SDS011;33994;50.998;5.864;2023-05-07T08:19:54;4.22;;;2.80;;
48203;SDS011;33994;50.998;5.864;2023-05-07T08:22:58;4.85;;;2.35;;
48203;SDS011;33994;50.998;5.864;2023-05-07T08:26:02;4.18;;;2.03;;
48203;SDS011;33994;50.998;5.864;2023-05-07T08:29:05;10.82;;;2.35;;
48203;SDS011;33994;50.998;5.864;2023-05-07T08:32:09;2.78;;;1.65;;
48203;SDS011;33994;50.998;5.864;2023-05-07T08:35:12;4.57;;;2.30;;
48203;SDS011;33994;50.998;5.864;2023-05-07T08:38:15;5.40;;;2.55;;
48203;SDS011;33994;50.998;5.864;2023-05-07T08:41:20;5.43;;;2.28;;
48203;SDS011;33994;50.998;5.864;2023-05-07T08:44:23;4.63;;;2.03;;
48203;SDS011;33994;50.998;5.864;2023-05-07T08:47:30;5.55;;;2.13;;
48203;SDS011;33994;50.998;5.864;2023-05-07T08:50:37;3.45;;;2.00;;
48203;SDS011;33994;50.998;5.864;2023-05-07T08:53:41;2.83;;;1.83;;
48203;SDS011;33994;50.998;5.864;2023-05-07T08:56:45;1.98;;;1.60;;
48203;SDS011;33994;50.998;5.864;2023-05-07T08:59:48;2.17;;;1.55;;
48203;SDS011;33994;50.998;5.864;2023-05-07T09:02:52;6.75;;;2.33;;
48203;SDS011;33994;50.998;5.864;2023-05-07T09:05:55;3.92;;;1.90;;
48203;SDS011;33994;50.998;5.864;2023-05-07T09:08:58;3.80;;;1.95;;
48203;SDS011;33994;50.998;5.864;2023-05-07T09:12:03;3.35;;;2.10;;
48203;SDS011;33994;50.998;5.864;2023-05-07T09:15:07;3.53;;;2.15;;
48203;SDS011;33994;50.998;5.864;2023-05-07T09:18:10;5.63;;;2.28;;
48203;SDS011;33994;50.998;5.864;2023-05-07T09:21:14;3.45;;;2.00;;
48203;SDS011;33994;50.998;5.864;2023-05-07T09:24:18;3.58;;;2.15;;
48203;SDS011;33994;50.998;5.864;2023-05-07T09:27:23;4.10;;;1.95;;
48203;SDS011;33994;50.998;5.864;2023-05-07T09:30:27;4.35;;;2.60;;
48203;SDS011;33994;50.998;5.864;2023-05-07T09:33:31;3.58;;;2.25;;
48203;SDS011;33994;50.998;5.864;2023-05-07T09:36:34;4.80;;;2.10;;
48203;SDS011;33994;50.998;5.864;2023-05-07T09:39:41;2.85;;;1.80;;
48203;SDS011;33994;50.998;5.864;2023-05-07T09:42:46;3.15;;;2.63;;
48203;SDS011;33994;50.998;5.864;2023-05-07T09:45:49;4.47;;;2.08;;
48203;SDS011;33994;50.998;5.864;2023-05-07T09:48:52;4.05;;;2.70;;
48203;SDS011;33994;50.998;5.864;2023-05-07T09:52:00;10.60;;;2.45;;
48203;SDS011;33994;50.998;5.864;2023-05-07T09:55:04;7.45;;;3.08;;
48203;SDS011;33994;50.998;5.864;2023-05-07T09:58:09;7.22;;;3.00;;
48203;SDS011;33994;50.998;5.864;2023-05-07T10:01:15;4.85;;;2.70;;
48203;SDS011;33994;50.998;5.864;2023-05-07T10:04:20;3.25;;;2.40;;
48203;SDS011;33994;50.998;5.864;2023-05-07T10:07:24;5.03;;;1.77;;
48203;SDS011;33994;50.998;5.864;2023-05-07T10:10:27;3.72;;;2.42;;
48203;SDS011;33994;50.998;5.864;2023-05-07T10:13:33;3.72;;;2.10;;
48203;SDS011;33994;50.998;5.864;2023-05-07T10:16:37;6.75;;;3.35;;
48203;SDS011;33994;50.998;5.864;2023-05-07T10:19:40;6.07;;;3.40;;
48203;SDS011;33994;50.998;5.864;2023-05-07T10:22:45;7.38;;;2.88;;
48203;SDS011;33994;50.998;5.864;2023-05-07T10:25:49;5.95;;;2.70;;
48203;SDS011;33994;50.998;5.864;2023-05-07T10:28:55;3.05;;;2.10;;
48203;SDS011;33994;50.998;5.864;2023-05-07T10:32:07;5.57;;;2.60;;
48203;SDS011;33994;50.998;5.864;2023-05-07T10:35:22;4.60;;;2.70;;
48203;SDS011;33994;50.998;5.864;2023-05-07T10:38:28;5.07;;;2.42;;
48203;SDS011;33994;50.998;5.864;2023-05-07T10:41:32;3.25;;;1.85;;
48203;SDS011;33994;50.998;5.864;2023-05-07T10:44:37;8.10;;;2.10;;
48203;SDS011;33994;50.998;5.864;2023-05-07T10:51:21;3.95;;;2.30;;
48203;SDS011;33994;50.998;5.864;2023-05-07T10:54:24;5.38;;;1.88;;
48203;SDS011;33994;50.998;5.864;2023-05-07T10:57:34;5.35;;;2.33;;
48203;SDS011;33994;50.998;5.864;2023-05-07T11:00:42;4.13;;;2.00;;
48203;SDS011;33994;50.998;5.864;2023-05-07T11:07:28;3.28;;;2.00;;
48203;SDS011;33994;50.998;5.864;2023-05-07T11:10:48;2.85;;;1.75;;
48203;SDS011;33994;50.998;5.864;2023-05-07T11:13:52;3.30;;;2.03;;
48203;SDS011;33994;50.998;5.864;2023-05-07T11:17:02;5.68;;;2.20;;
48203;SDS011;33994;50.998;5.864;2023-05-07T11:20:05;5.70;;;2.30;;
48203;SDS011;33994;50.998;5.864;2023-05-07T11:23:10;5.70;;;2.15;;
48203;SDS011;33994;50.998;5.864;2023-05-07T11:26:51;3.22;;;2.35;;
48203;SDS011;33994;50.998;5.864;2023-05-07T11:29:55;4.35;;;1.85;;
48203;SDS011;33994;50.998;5.864;2023-05-07T11:32:59;6.55;;;2.22;;
48203;SDS011;33994;50.998;5.864;2023-05-07T11:36:03;3.28;;;1.67;;
48203;SDS011;33994;50.998;5.864;2023-05-07T11:39:22;5.85;;;2.63;;
48203;SDS011;33994;50.998;5.864;2023-05-07T11:45:30;2.50;;;1.67;;
48203;SDS011;33994;50.998;5.864;2023-05-07T11:48:34;3.15;;;1.92;;
48203;SDS011;33994;50.998;5.864;2023-05-07T11:51:38;7.78;;;3.30;;
48203;SDS011;33994;50.998;5.864;2023-05-07T11:54:44;7.20;;;3.63;;
48203;SDS011;33994;50.998;5.864;2023-05-07T11:57:51;7.35;;;3.60;;
48203;SDS011;33994;50.998;5.864;2023-05-07T12:00:55;12.13;;;4.47;;
48203;SDS011;33994;50.998;5.864;2023-05-07T12:03:59;14.23;;;4.82;;
48203;SDS011;33994;50.998;5.864;2023-05-07T12:10:13;6.20;;;3.40;;
48203;SDS011;33994;50.998;5.864;2023-05-07T12:13:17;12.07;;;4.60;;
48203;SDS011;33994;50.998;5.864;2023-05-07T12:16:21;8.38;;;4.10;;
48203;SDS011;33994;50.998;5.864;2023-05-07T12:19:25;9.40;;;4.93;;
48203;SDS011;33994;50.998;5.864;2023-05-07T12:22:28;7.40;;;4.60;;
48203;SDS011;33994;50.998;5.864;2023-05-07T12:25:32;9.93;;;4.63;;
48203;SDS011;33994;50.998;5.864;2023-05-07T12:28:37;8.18;;;5.18;;
48203;SDS011;33994;50.998;5.864;2023-05-07T12:31:41;9.52;;;4.78;;
48203;SDS011;33994;50.998;5.864;2023-05-07T12:34:46;6.28;;;4.22;;
48203;SDS011;33994;50.998;5.864;2023-05-07T12:37:54;9.77;;;5.28;;
48203;SDS011;33994;50.998;5.864;2023-05-07T12:40:57;9.77;;;4.88;;
48203;SDS011;33994;50.998;5.864;2023-05-07T12:44:00;8.50;;;5.30;;
48203;SDS011;33994;50.998;5.864;2023-05-07T12:47:06;8.52;;;5.20;;
48203;SDS011;33994;50.998;5.864;2023-05-07T12:50:11;13.07;;;5.35;;
48203;SDS011;33994;50.998;5.864;2023-05-07T12:53:15;10.00;;;4.57;;
48203;SDS011;33994;50.998;5.864;2023-05-07T12:56:18;6.03;;;3.97;;
48203;SDS011;33994;50.998;5.864;2023-05-07T12:59:30;4.85;;;3.53;;
48203;SDS011;33994;50.998;5.864;2023-05-07T13:02:33;7.40;;;3.53;;
48203;SDS011;33994;50.998;5.864;2023-05-07T13:05:41;7.05;;;3.40;;
48203;SDS011;33994;50.998;5.864;2023-05-07T13:08:44;5.05;;;3.47;;
48203;SDS011;33994;50.998;5.864;2023-05-07T13:11:48;6.15;;;3.78;;
48203;SDS011;33994;50.998;5.864;2023-05-07T13:14:51;5.72;;;3.30;;
48203;SDS011;33994;50.998;5.864;2023-05-07T13:17:54;6.15;;;3.40;;
48203;SDS011;33994;50.998;5.864;2023-05-07T13:20:59;5.35;;;3.05;;
48203;SDS011;33994;50.998;5.864;2023-05-07T13:24:03;4.28;;;2.75;;
48203;SDS011;33994;50.998;5.864;2023-05-07T13:27:07;3.58;;;2.13;;
48203;SDS011;33994;50.998;5.864;2023-05-07T13:30:10;5.85;;;2.75;;
48203;SDS011;33994;50.998;5.864;2023-05-07T13:33:13;4.60;;;3.60;;
48203;SDS011;33994;50.998;5.864;2023-05-07T13:36:17;3.80;;;2.55;;
48203;SDS011;33994;50.998;5.864;2023-05-07T13:39:21;3.85;;;2.40;;
48203;SDS011;33994;50.998;5.864;2023-05-07T13:42:24;6.13;;;2.65;;
48203;SDS011;33994;50.998;5.864;2023-05-07T13:45:27;6.20;;;2.75;;
48203;SDS011;33994;50.998;5.864;2023-05-07T13:48:30;5.90;;;2.17;;
48203;SDS011;33994;50.998;5.864;2023-05-07T13:51:35;4.50;;;2.45;;
48203;SDS011;33994;50.998;5.864;2023-05-07T13:54:38;7.40;;;3.50;;
48203;SDS011;33994;50.998;5.864;2023-05-07T13:57:41;5.60;;;3.17;;
48203;SDS011;33994;50.998;5.864;2023-05-07T14:00:44;6.00;;;2.40;;
48203;SDS011;33994;50.998;5.864;2023-05-07T14:03:47;3.55;;;2.05;;
48203;SDS011;33994;50.998;5.864;2023-05-07T14:06:52;3.10;;;1.88;;
48203;SDS011;33994;50.998;5.864;2023-05-07T14:09:56;4.30;;;2.20;;
48203;SDS011;33994;50.998;5.864;2023-05-07T14:12:59;3.33;;;1.92;;
48203;SDS011;33994;50.998;5.864;2023-05-07T14:16:03;4.03;;;2.13;;
48203;SDS011;33994;50.998;5.864;2023-05-07T14:19:07;3.70;;;1.95;;
48203;SDS011;33994;50.998;5.864;2023-05-07T14:22:12;3.78;;;2.22;;
48203;SDS011;33994;50.998;5.864;2023-05-07T14:25:16;4.32;;;2.10;;
48203;SDS011;33994;50.998;5.864;2023-05-07T14:28:19;4.43;;;2.67;;
48203;SDS011;33994;50.998;5.864;2023-05-07T14:31:22;5.90;;;2.75;;
48203;SDS011;33994;50.998;5.864;2023-05-07T14:34:25;6.50;;;2.72;;
48203;SDS011;33994;50.998;5.864;2023-05-07T14:37:30;4.55;;;2.65;;
48203;SDS011;33994;50.998;5.864;2023-05-07T14:40:33;6.03;;;2.60;;
48203;SDS011;33994;50.998;5.864;2023-05-07T14:43:36;5.35;;;3.17;;
48203;SDS011;33994;50.998;5.864;2023-05-07T14:46:40;7.72;;;3.00;;
48203;SDS011;33994;50.998;5.864;2023-05-07T14:49:43;12.15;;;4.13;;
48203;SDS011;33994;50.998;5.864;2023-05-07T14:52:48;8.82;;;3.13;;
48203;SDS011;33994;50.998;5.864;2023-05-07T14:55:51;8.45;;;3.65;;
48203;SDS011;33994;50.998;5.864;2023-05-07T14:58:54;4.90;;;2.70;;
48203;SDS011;33994;50.998;5.864;2023-05-07T15:01:57;4.32;;;2.88;;
48203;SDS011;33994;50.998;5.864;2023-05-07T15:05:00;3.58;;;1.80;;
48203;SDS011;33994;50.998;5.864;2023-05-07T15:08:05;2.53;;;1.42;;
48203;SDS011;33994;50.998;5.864;2023-05-07T15:11:08;3.47;;;1.50;;
48203;SDS011;33994;50.998;5.864;2023-05-07T15:14:11;4.80;;;1.90;;
48203;SDS011;33994;50.998;5.864;2023-05-07T15:17:14;3.67;;;1.67;;
48203;SDS011;33994;50.998;5.864;2023-05-07T15:20:17;2.50;;;1.90;;
48203;SDS011;33994;50.998;5.864;2023-05-07T15:23:22;5.97;;;1.92;;
48203;SDS011;33994;50.998;5.864;2023-05-07T15:26:25;5.90;;;2.30;;
48203;SDS011;33994;50.998;5.864;2023-05-07T15:29:28;3.50;;;2.00;;
48203;SDS011;33994;50.998;5.864;2023-05-07T15:32:31;4.75;;;2.70;;
48203;SDS011;33994;50.998;5.864;2023-05-07T15:35:35;6.13;;;2.72;;
48203;SDS011;33994;50.998;5.864;2023-05-07T15:38:39;6.60;;;3.60;;
48203;SDS011;33994;50.998;5.864;2023-05-07T15:41:42;3.95;;;2.58;;
48203;SDS011;33994;50.998;5.864;2023-05-07T15:44:45;8.23;;;3.20;;
48203;SDS011;33994;50.998;5.864;2023-05-07T15:47:49;6.13;;;3.22;;
48203;SDS011;33994;50.998;5.864;2023-05-07T15:50:52;4.32;;;2.75;;
48203;SDS011;33994;50.998;5.864;2023-05-07T15:53:56;4.72;;;2.55;;
48203;SDS011;33994;50.998;5.864;2023-05-07T15:57:00;8.77;;;3.35;;
48203;SDS011;33994;50.998;5.864;2023-05-07T16:00:03;7.38;;;4.20;;
48203;SDS011;33994;50.998;5.864;2023-05-07T16:03:07;8.95;;;3.85;;
48203;SDS011;33994;50.998;5.864;2023-05-07T16:06:10;6.15;;;4.07;;
48203;SDS011;33994;50.998;5.864;2023-05-07T16:09:15;6.35;;;3.97;;
48203;SDS011;33994;50.998;5.864;2023-05-07T16:12:18;6.25;;;4.07;;
48203;SDS011;33994;50.998;5.864;2023-05-07T16:15:22;7.50;;;3.90;;
48203;SDS011;33994;50.998;5.864;2023-05-07T16:18:24;5.50;;;4.07;;
48203;SDS011;33994;50.998;5.864;2023-05-07T16:21:27;7.95;;;5.15;;
48203;SDS011;33994;50.998;5.864;2023-05-07T16:24:32;6.78;;;4.40;;
48203;SDS011;33994;50.998;5.864;2023-05-07T16:27:35;6.53;;;3.90;;
48203;SDS011;33994;50.998;5.864;2023-05-07T16:30:38;6.95;;;3.85;;
48203;SDS011;33994;50.998;5.864;2023-05-07T16:33:41;7.95;;;4.38;;
48203;SDS011;33994;50.998;5.864;2023-05-07T16:36:45;6.53;;;3.25;;
48203;SDS011;33994;50.998;5.864;2023-05-07T16:39:49;5.63;;;3.20;;
48203;SDS011;33994;50.998;5.864;2023-05-07T16:42:52;7.60;;;3.10;;
48203;SDS011;33994;50.998;5.864;2023-05-07T16:45:57;6.82;;;3.35;;
48203;SDS011;33994;50.998;5.864;2023-05-07T16:49:00;6.97;;;3.42;;
48203;SDS011;33994;50.998;5.864;2023-05-07T16:52:04;10.18;;;3.45;;
48203;SDS011;33994;50.998;5.864;2023-05-07T16:55:08;7.55;;;3.38;;
48203;SDS011;33994;50.998;5.864;2023-05-07T16:58:11;8.75;;;4.40;;
48203;SDS011;33994;50.998;5.864;2023-05-07T17:01:14;9.48;;;3.72;;
48203;SDS011;33994;50.998;5.864;2023-05-07T17:04:17;5.85;;;3.38;;
48203;SDS011;33994;50.998;5.864;2023-05-07T17:07:20;5.53;;;3.38;;
48203;SDS011;33994;50.998;5.864;2023-05-07T17:10:25;7.13;;;3.97;;
48203;SDS011;33994;50.998;5.864;2023-05-07T17:13:28;6.35;;;4.15;;
48203;SDS011;33994;50.998;5.864;2023-05-07T17:16:31;8.70;;;4.30;;
48203;SDS011;33994;50.998;5.864;2023-05-07T17:19:34;8.65;;;4.72;;
48203;SDS011;33994;50.998;5.864;2023-05-07T17:22:39;9.25;;;5.40;;
48203;SDS011;33994;50.998;5.864;2023-05-07T17:25:44;8.07;;;4.60;;
48203;SDS011;33994;50.998;5.864;2023-05-07T17:28:47;9.05;;;4.53;;
48203;SDS011;33994;50.998;5.864;2023-05-07T17:31:50;7.50;;;4.00;;
48203;SDS011;33994;50.998;5.864;2023-05-07T17:34:54;6.82;;;3.58;;
48203;SDS011;33994;50.998;5.864;2023-05-07T17:37:57;5.13;;;3.95;;
48203;SDS011;33994;50.998;5.864;2023-05-07T17:41:01;5.72;;;4.38;;
48203;SDS011;33994;50.998;5.864;2023-05-07T17:44:04;6.95;;;4.13;;
48203;SDS011;33994;50.998;5.864;2023-05-07T17:47:08;7.88;;;3.58;;
48203;SDS011;33994;50.998;5.864;2023-05-07T17:50:11;5.80;;;3.40;;
48203;SDS011;33994;50.998;5.864;2023-05-07T17:53:15;4.55;;;2.88;;
48203;SDS011;33994;50.998;5.864;2023-05-07T17:56:19;6.47;;;2.85;;
48203;SDS011;33994;50.998;5.864;2023-05-07T17:59:22;3.58;;;2.53;;
48203;SDS011;33994;50.998;5.864;2023-05-07T18:02:26;5.80;;;3.03;;
48203;SDS011;33994;50.998;5.864;2023-05-07T18:05:29;8.60;;;3.22;;
48203;SDS011;33994;50.998;5.864;2023-05-07T18:08:33;8.63;;;3.05;;
48203;SDS011;33994;50.998;5.864;2023-05-07T18:11:37;5.82;;;2.78;;
48203;SDS011;33994;50.998;5.864;2023-05-07T18:14:41;6.78;;;3.08;;
48203;SDS011;33994;50.998;5.864;2023-05-07T18:17:44;4.68;;;2.40;;
48203;SDS011;33994;50.998;5.864;2023-05-07T18:20:47;5.75;;;2.50;;
48203;SDS011;33994;50.998;5.864;2023-05-07T18:23:51;5.78;;;2.63;;
48203;SDS011;33994;50.998;5.864;2023-05-07T18:26:55;5.40;;;2.33;;
48203;SDS011;33994;50.998;5.864;2023-05-07T18:29:58;8.82;;;3.10;;
48203;SDS011;33994;50.998;5.864;2023-05-07T18:33:02;9.52;;;2.50;;
48203;SDS011;33994;50.998;5.864;2023-05-07T18:36:05;5.32;;;2.75;;
48203;SDS011;33994;50.998;5.864;2023-05-07T18:39:08;4.68;;;2.53;;
48203;SDS011;33994;50.998;5.864;2023-05-07T18:42:13;5.97;;;2.90;;